^^
B2 Weather Station Historical Data
Daily Summary for July 7, 2019 Units:  English    Metric   Both
Daily Weekly Monthly Yearly Custom
  High: Low: Average:
Temperature: 80.9 °F 63.9 °F 71 °F
Dew Point: 72.4 °F 58.7 °F 64.4 °F
Humidity: 95% 58% 81%
Wind Speed: 16.1mph 0mph 6.7mph
Wind Gust: 10.9mph - -
Wind- - SE
Pressure: 30.01 in 29.94 in -
Precipitation: 0 in    
Historical Graphs
 
 
Tabular Data for July 7, 2019
Time Temperature Dew Point Pressure Wind Wind Speed Wind Gust Humidity Rainfall Rate (Hourly) solar
00:04 67.9 °F 62.5 °F 29.98 in NNW 4.6 mph 3 mph 83% 0 in 0.00 W/m2
00:09 67.9 °F 62.5 °F 29.98 in NNW 6.9 mph 3.6 mph 83% 0 in 0.00 W/m2
00:14 67.9 °F 62.5 °F 29.98 in NNW 8.1 mph 5.8 mph 83% 0 in 0.00 W/m2
00:19 67.7 °F 62.3 °F 29.98 in NNW 6.9 mph 4.6 mph 83% 0 in 0.00 W/m2
00:24 67.7 °F 62.3 °F 29.98 in NNW 4.6 mph 3.5 mph 83% 0 in 0.00 W/m2
00:29 67.5 °F 62.5 °F 29.97 in NNW 4.6 mph 2.7 mph 84% 0 in 0.00 W/m2
00:34 67.1 °F 62.1 °F 29.97 in NNW 5.8 mph 2.9 mph 84% 0 in 0.00 W/m2
00:39 66.9 °F 62.2 °F 29.97 in North 3.5 mph 2 mph 85% 0 in 0.00 W/m2
00:44 66.7 °F 62 °F 29.97 in NNW 5 mph 3.7 mph 85% 0 in 0.00 W/m2
00:49 66.6 °F 62.3 °F 29.97 in North 4.6 mph 3.9 mph 86% 0 in 0.00 W/m2
00:54 66.6 °F 62.3 °F 29.97 in NNW 6.9 mph 3.8 mph 86% 0 in 0.00 W/m2
00:59 66.5 °F 62.2 °F 29.97 in NNW 6.9 mph 4.6 mph 86% 0 in 0.00 W/m2
01:04 66.5 °F 62.2 °F 29.97 in NNW 8.1 mph 4.2 mph 86% 0 in 0.00 W/m2
01:09 66.5 °F 62.5 °F 29.97 in North 5.8 mph 4.2 mph 87% 0 in 0.00 W/m2
01:14 66.4 °F 62.4 °F 29.97 in NNW 4.6 mph 3.6 mph 87% 0 in 0.00 W/m2
01:19 66.3 °F 62.3 °F 29.97 in NNW 5.8 mph 3.8 mph 87% 0 in 0.00 W/m2
01:24 66.2 °F 62.2 °F 29.97 in NNW 3.5 mph 1.8 mph 87% 0 in 0.00 W/m2
01:29 66.2 °F 62.2 °F 29.96 in NNW 2.3 mph 0.3 mph 87% 0 in 0.00 W/m2
01:34 66.1 °F 62.1 °F 29.96 in Calm     87% 0 in 0.00 W/m2
01:39 65.9 °F 62.2 °F 29.96 in NNW 2 mph 0.3 mph 88% 0 in 0.00 W/m2
01:44 65.7 °F 62 °F 29.96 in NNW 2.3 mph   88% 0 in 0.00 W/m2
01:49 65.6 °F 61.9 °F 29.96 in Calm     88% 0 in 0.00 W/m2
01:54 65.4 °F 62.1 °F 29.96 in Calm     89% 0 in 0.00 W/m2
01:59 65.2 °F 61.9 °F 29.96 in Calm     89% 0 in 0.00 W/m2
02:04 65 °F 62 °F 29.96 in Calm     90% 0 in 0.00 W/m2
02:09 65 °F 62 °F 29.96 in Calm     90% 0 in 0.00 W/m2
02:14 65 °F 61.7 °F 29.95 in NNW 2.3 mph 1.3 mph 89% 0 in 0.00 W/m2
02:19 65 °F 61.7 °F 29.95 in NNW 2.3 mph 1.3 mph 89% 0 in 0.00 W/m2
02:24 65.2 °F 61.9 °F 29.95 in NNW 2.3 mph 1.2 mph 89% 0 in 0.00 W/m2
02:29 65.1 °F 61.8 °F 29.95 in NNW 1.2 mph 1.5 mph 89% 0 in 0.00 W/m2
02:34 64.9 °F 61.9 °F 29.94 in NNW 2.3 mph 1.1 mph 90% 0 in 0.00 W/m2
02:39 64.8 °F 61.8 °F 29.94 in NNW 3.5 mph 1.2 mph 90% 0 in 0.00 W/m2
02:44 64.8 °F 61.8 °F 29.94 in NNW 3.5 mph 2.8 mph 90% 0 in 0.00 W/m2
02:49 64.8 °F 61.8 °F 29.94 in NNW 2.3 mph 0.6 mph 90% 0 in 0.00 W/m2
02:54 64.8 °F 61.8 °F 29.94 in NNW 2.3 mph 1.6 mph 90% 0 in 0.00 W/m2
02:59 64.9 °F 61.9 °F 29.94 in NNW 3.5 mph 1.5 mph 90% 0 in 0.00 W/m2
03:04 64.9 °F 61.9 °F 29.94 in NNW 1.2 mph 0.1 mph 90% 0 in 0.00 W/m2
03:09 64.6 °F 61.6 °F 29.94 in NNW 1.2 mph 0.7 mph 90% 0 in 0.00 W/m2
03:14 64.4 °F 61.7 °F 29.94 in NNW 2 mph 0.8 mph 91% 0 in 0.00 W/m2
03:19 64.2 °F 61.5 °F 29.94 in NNW 2.3 mph 1.3 mph 91% 0 in 0.00 W/m2
03:24 64 °F 61.3 °F 29.94 in NNW 2.3 mph 0.2 mph 91% 0 in 0.00 W/m2
03:29 63.9 °F 61.5 °F 29.94 in NNW 3.5 mph 3 mph 92% 0 in 0.00 W/m2
03:34 63.9 °F 61.5 °F 29.94 in NNW 3.5 mph 1.9 mph 92% 0 in 0.00 W/m2
03:39 63.9 °F 61.5 °F 29.94 in NNW 2 mph 0.7 mph 92% 0 in 0.00 W/m2
03:44 63.9 °F 61.5 °F 29.94 in NNW 4 mph 3.2 mph 92% 0 in 0.00 W/m2
03:49 64 °F 61.6 °F 29.94 in NNW 3.5 mph 1.3 mph 92% 0 in 0.00 W/m2
03:54 64 °F 61.6 °F 29.94 in NNW 2.3 mph 1.2 mph 92% 0 in 0.00 W/m2
03:59 64 °F 61.6 °F 29.94 in Calm     92% 0 in 0.00 W/m2
04:04 64.1 °F 61.4 °F 29.95 in Calm     91% 0 in 0.00 W/m2
04:09 64.1 °F 61.4 °F 29.94 in Calm     91% 0 in 0.00 W/m2
04:14 64.1 °F 61.4 °F 29.95 in NNW 2.3 mph 1.2 mph 91% 0 in 0.00 W/m2
04:19 64.2 °F 61.5 °F 29.94 in NNW 1 mph 0.4 mph 91% 0 in 0.00 W/m2
04:24 64.3 °F 61.9 °F 29.95 in NNW 3.5 mph 2.4 mph 92% 0 in 0.00 W/m2
04:29 64.3 °F 61.9 °F 29.95 in NNW 3.5 mph 1.1 mph 92% 0 in 0.00 W/m2
04:34 64.3 °F 61.9 °F 29.95 in NNW 3.5 mph 0.1 mph 92% 0 in 0.00 W/m2
04:39 64.2 °F 61.8 °F 29.95 in NNW 2.3 mph 0.8 mph 92% 0 in 0.00 W/m2
04:44 64.2 °F 61.8 °F 29.95 in NNW 2.3 mph 0.1 mph 92% 0 in 0.00 W/m2
04:49 64.3 °F 61.9 °F 29.96 in NNW 1.2 mph   92% 0 in 0.00 W/m2
04:54 64.3 °F 61.9 °F 29.96 in Calm     92% 0 in 0.00 W/m2
04:59 64.3 °F 61.9 °F 29.96 in Calm     92% 0 in 0.00 W/m2
05:04 64.3 °F 61.9 °F 29.96 in NNW 1 mph 0.8 mph 92% 0 in 0.00 W/m2
05:09 64.5 °F 62.1 °F 29.96 in Calm     92% 0 in 0.00 W/m2
05:14 64.6 °F 62.5 °F 29.96 in NNW 2.3 mph 0.5 mph 93% 0 in 0.00 W/m2
05:19 64.9 °F 62.8 °F 29.97 in NNW 3.5 mph 0.8 mph 93% 0 in 0.00 W/m2
05:24 65.2 °F 63.1 °F 29.97 in NNW 3.5 mph 1.6 mph 93% 0 in 0.00 W/m2
05:29 65.3 °F 63.2 °F 29.97 in NNW 3 mph 0.8 mph 93% 0 in 0.00 W/m2
05:34 65.5 °F 63.4 °F 29.97 in NNW 4.6 mph 3.2 mph 93% 0 in 0.00 W/m2
05:39 65.6 °F 63.5 °F 29.98 in NNW 3.5 mph 1.7 mph 93% 0 in 0.00 W/m2
05:44 65.8 °F 63.7 °F 29.98 in NNW 4 mph 3.2 mph 93% 0 in 5.00 W/m2
05:49 65.9 °F 63.8 °F 29.97 in NNW 3.5 mph 3.1 mph 93% 0 in 5.00 W/m2
05:54 66.1 °F 64.3 °F 29.97 in NNW 3.5 mph 1.8 mph 94% 0 in 5.00 W/m2
05:59 66.3 °F 64.5 °F 29.97 in NNW 1.2 mph 0.4 mph 94% 0 in 9.00 W/m2
06:04 66.4 °F 64.6 °F 29.97 in NNW 2.3 mph 1.5 mph 94% 0 in 11.00 W/m2
06:09 66.5 °F 64.7 °F 29.97 in NNW 2.3 mph 1.9 mph 94% 0 in 14.00 W/m2
06:14 66.7 °F 64.9 °F 29.98 in North 3.5 mph 1.5 mph 94% 0 in 14.00 W/m2
06:19 66.8 °F 65 °F 29.98 in NNE 3 mph 2.1 mph 94% 0 in 19.00 W/m2
06:24 66.8 °F 65 °F 29.98 in NNE 2 mph 2.1 mph 94% 0 in 19.00 W/m2
06:29 67 °F 65.2 °F 29.98 in NNE 2.3 mph 0.9 mph 94% 0 in 21.00 W/m2
06:34 67.1 °F 65.3 °F 29.98 in Calm     94% 0 in 23.00 W/m2
06:39 67.2 °F 65.4 °F 29.98 in North 4.6 mph   94% 0 in 25.00 W/m2
06:44 67.3 °F 65.5 °F 29.98 in Calm     94% 0 in 28.00 W/m2
06:49 67.3 °F 65.5 °F 29.98 in NNE 4 mph 0.8 mph 94% 0 in 23.00 W/m2
06:54 67.4 °F 65.6 °F 29.98 in Calm     94% 0 in 26.00 W/m2
06:59 67.5 °F 66 °F 29.98 in Calm     95% 0 in 28.00 W/m2
07:04 67.5 °F 66 °F 29.98 in Calm     95% 0 in 35.00 W/m2
07:09 67.6 °F 66.1 °F 29.98 in North 3 mph 0.5 mph 95% 0 in 35.00 W/m2
07:14 67.7 °F 66.2 °F 29.98 in North 3.5 mph 2 mph 95% 0 in 33.00 W/m2
07:19 67.8 °F 66.3 °F 29.98 in North 4.6 mph 2.7 mph 95% 0 in 40.00 W/m2
07:24 67.9 °F 66.4 °F 29.98 in North 5 mph 3.7 mph 95% 0 in 47.00 W/m2
07:29 67.9 °F 66.4 °F 29.99 in North 5.8 mph 1.8 mph 95% 0 in 49.00 W/m2
07:34 67.9 °F 66.4 °F 29.99 in North 3.5 mph   95% 0 in 49.00 W/m2
07:39 67.9 °F 66.4 °F 29.99 in NNW 5 mph 2.1 mph 95% 0 in 46.00 W/m2
07:44 67.9 °F 66.4 °F 29.99 in North 7 mph 2.3 mph 95% 0 in 70.00 W/m2
07:49 67.8 °F 66.3 °F 29.98 in NNW 8.1 mph 4 mph 95% 0 in 97.00 W/m2
07:54 67.9 °F 66.4 °F 29.98 in North 4.6 mph 2.5 mph 95% 0 in 144.00 W/m2
07:59 68 °F 66.5 °F 29.98 in NNE 8.1 mph 3.8 mph 95% 0 in 125.00 W/m2
08:04 68.1 °F 66.6 °F 29.98 in North 3.5 mph 1.9 mph 95% 0 in 142.00 W/m2
08:09 67.9 °F 66.4 °F 29.99 in North 10.4 mph 8.9 mph 95% 0 in 142.00 W/m2
08:14 67.7 °F 66.2 °F 29.99 in North 7 mph 6.4 mph 95% 0 in 107.00 W/m2
08:19 67.5 °F 65.7 °F 29.99 in North 11.5 mph 6.8 mph 94% 0 in 105.00 W/m2
08:24 67.6 °F 65.8 °F 29.99 in NE 10.4 mph 6.3 mph 94% 0 in 104.00 W/m2
08:29 67.7 °F 65.9 °F 30.00 in North 9.2 mph 5.8 mph 94% 0 in 98.00 W/m2
08:34 67.8 °F 66 °F 30.00 in North 6 mph 3.7 mph 94% 0 in 130.00 W/m2
08:39 67.9 °F 65.8 °F 30.00 in North 10 mph 7 mph 93% 0 in 149.00 W/m2
08:44 68.1 °F 66 °F 29.99 in North 6.9 mph 2.7 mph 93% 0 in 144.00 W/m2
08:49 68.3 °F 65.9 °F 30.00 in North 10 mph 6 mph 92% 0 in 125.00 W/m2
08:54 68.4 °F 65.7 °F 30.00 in NNE 9.2 mph 6.2 mph 91% 0 in 130.00 W/m2
08:59 68.6 °F 65.9 °F 29.99 in NE 11.5 mph 5.9 mph 91% 0 in 272.00 W/m2
09:04 69.4 °F 67 °F 29.99 in North 9.2 mph 8.8 mph 92% 0 in 345.00 W/m2
09:09 70 °F 66.9 °F 29.99 in North 11.5 mph 7.6 mph 90% 0 in 320.00 W/m2
09:14 70.5 °F 67.4 °F 29.99 in NNE 8.1 mph 4.2 mph 90% 0 in 318.00 W/m2
09:19 70.8 °F 67.4 °F 29.99 in NNE 7 mph 5.9 mph 89% 0 in 302.00 W/m2
09:24 71.3 °F 67.9 °F 29.99 in NNE 8.1 mph 4.2 mph 89% 0 in 390.00 W/m2
09:29 72 °F 68.2 °F 29.99 in North 6.9 mph 7 mph 88% 0 in 383.00 W/m2
09:34 72.4 °F 68.3 °F 30.00 in NNW 8.1 mph 4.4 mph 87% 0 in 285.00 W/m2
09:39 72.4 °F 68 °F 30.00 in NNE 8.1 mph 6.2 mph 86% 0 in 292.00 W/m2
09:44 72.3 °F 67.9 °F 29.99 in North 7 mph 6.1 mph 86% 0 in 357.00 W/m2
09:49 72.5 °F 68.4 °F 29.99 in NNE 8.1 mph 6.1 mph 87% 0 in 362.00 W/m2
09:54 73 °F 68.9 °F 30.00 in North 6 mph 3.8 mph 87% 0 in 360.00 W/m2
09:59 73.4 °F 69 °F 30.00 in North 10 mph 5.7 mph 86% 0 in 399.00 W/m2
10:04 73.6 °F 68.8 °F 30.00 in North 9.2 mph 6.7 mph 85% 0 in 341.00 W/m2
10:09 73.7 °F 69.2 °F 29.99 in NNW 10.4 mph 6 mph 86% 0 in 443.00 W/m2
10:14 74 °F 69.2 °F 30.00 in North 10.4 mph 6.3 mph 85% 0 in 367.00 W/m2
10:19 74.3 °F 69.8 °F 30.00 in North 6.9 mph 4.9 mph 86% 0 in 301.00 W/m2
10:24 74.4 °F 69.2 °F 30.00 in North 9.2 mph 6.6 mph 84% 0 in 276.00 W/m2
10:29 74.2 °F 69.1 °F 30.00 in NNE 9.2 mph 5.3 mph 84% 0 in 243.00 W/m2
10:34 74.2 °F 69.1 °F 30.01 in NE 11.5 mph 5.9 mph 84% 0 in 369.00 W/m2
10:39 74.5 °F 69 °F 30.01 in North 11.5 mph 8.1 mph 83% 0 in 571.00 W/m2
10:44 75 °F 69.8 °F 30.01 in NNE 9.2 mph 5.9 mph 84% 0 in 448.00 W/m2
10:49 75.3 °F 69.4 °F 30.01 in NNW 7 mph 4.5 mph 82% 0 in 457.00 W/m2
10:54 76 °F 69.7 °F 30.01 in NNE 11.5 mph 6.2 mph 81% 0 in 420.00 W/m2
10:59 76.6 °F 70.7 °F 30.01 in North 13 mph 8.8 mph 82% 0 in 626.00 W/m2
11:04 76.8 °F 71.2 °F 30.01 in NE 11.5 mph 4.5 mph 83% 0 in 803.00 W/m2
11:09 77.1 °F 70.5 °F 30.01 in NNE 8.1 mph 6.8 mph 80% 0 in 844.00 W/m2
11:14 76.8 °F 70.5 °F 30.01 in NNE 13.8 mph 6.5 mph 81% 0 in 867.00 W/m2
11:19 76.6 °F 70 °F 30.01 in NNE 11.5 mph 8.7 mph 80% 0 in 847.00 W/m2
11:24 76.6 °F 70 °F 30.01 in NE 11.5 mph 6.1 mph 80% 0 in 482.00 W/m2
11:29 75.9 °F 68.9 °F 30.01 in NNE 13.8 mph 8.4 mph 79% 0 in 510.00 W/m2
11:34 75.3 °F 68.7 °F 30.01 in ENE 10.4 mph 8.1 mph 80% 0 in 443.00 W/m2
11:39 75 °F 68.4 °F 30.01 in North 12.7 mph 8.8 mph 80% 0 in 429.00 W/m2
11:44 74.9 °F 69 °F 30.01 in NE 9.2 mph 6.8 mph 82% 0 in 582.00 W/m2
11:49 75.1 °F 69.2 °F 30.01 in NE 9.2 mph 3.2 mph 82% 0 in 496.00 W/m2
11:54 75.3 °F 69.1 °F 30.01 in North 8.1 mph 4.7 mph 81% 0 in 466.00 W/m2
11:59 75.8 °F 70.3 °F 30.01 in NE 9 mph 6.7 mph 83% 0 in 768.00 W/m2
12:04 76.7 °F 70.8 °F 30.01 in NNE 8.1 mph 4.5 mph 82% 0 in 633.00 W/m2
12:09 77.6 °F 72 °F 30.00 in NNE 6.9 mph 2.2 mph 83% 0 in 1088.00 W/m2
12:14 78.6 °F 71.5 °F 30.00 in NE 8.1 mph 5.1 mph 79% 0 in 1053.00 W/m2
12:19 78.8 °F 71 °F 30.00 in NE 10.4 mph 5.4 mph 77% 0 in 817.00 W/m2
12:24 79 °F 71.6 °F 30.00 in ENE 9.2 mph 2.2 mph 78% 0 in 817.00 W/m2
12:29 78.9 °F 70.7 °F 30.00 in NNE 8.1 mph 4.3 mph 76% 0 in 432.00 W/m2
12:34 78.8 °F 71 °F 30.00 in ENE 11.5 mph 6.1 mph 77% 0 in 896.00 W/m2
12:39 79.4 °F 72.3 °F 29.99 in NNE 10.4 mph 2.9 mph 79% 0 in 886.00 W/m2
12:44 79.7 °F 72.2 °F 29.99 in NNE 6.9 mph 3.9 mph 78% 0 in 888.00 W/m2
12:49 79.9 °F 71.7 °F 29.99 in NE 11.5 mph 4.8 mph 76% 0 in 884.00 W/m2
12:54 80 °F 71.4 °F 29.99 in NE 9.2 mph 4.1 mph 75% 0 in 886.00 W/m2
12:59 80.3 °F 72.4 °F 29.99 in ENE 6.9 mph 5.2 mph 77% 0 in 788.00 W/m2
13:04 80.3 °F 71.6 °F 29.99 in NNE 11.5 mph 5.6 mph 75% 0 in 524.00 W/m2
13:09 79.9 °F 70.5 °F 29.99 in NE 13.8 mph 9.5 mph 73% 0 in 974.00 W/m2
13:14 79.4 °F 70 °F 29.99 in ENE 8.1 mph 5.4 mph 73% 0 in 439.00 W/m2
13:19 78.9 °F 69.9 °F 29.99 in ENE 9.2 mph 6.7 mph 74% 0 in 513.00 W/m2
13:24 78.4 °F 69.4 °F 29.98 in NNE 10.4 mph 7.7 mph 74% 0 in 584.00 W/m2
13:29 78.7 °F 71.6 °F 29.98 in North 9 mph 5.8 mph 79% 0 in 919.00 W/m2
13:34 79.2 °F 71 °F 29.98 in NE 12.7 mph 8 mph 76% 0 in 896.00 W/m2
13:39 79.5 °F 69.7 °F 29.98 in North 12.7 mph 10.9 mph 72% 0 in 896.00 W/m2
13:44 79.6 °F 71.4 °F 29.98 in NE 11.5 mph 2.8 mph 76% 0 in 893.00 W/m2
13:49 80.1 °F 71.5 °F 29.98 in NE 9.2 mph 4.5 mph 75% 0 in 905.00 W/m2
13:54 80.2 °F 70.8 °F 29.98 in ENE 12.7 mph 6.3 mph 73% 0 in 817.00 W/m2
13:59 80.1 °F 71.1 °F 29.98 in North 11 mph 2.9 mph 74% 0 in 875.00 W/m2
14:04 79.6 °F 69.8 °F 29.98 in North 10.4 mph 7.3 mph 72% 0 in 621.00 W/m2
14:09 79.1 °F 69.3 °F 29.98 in North 12.7 mph 7.6 mph 72% 0 in 638.00 W/m2
14:14 78.9 °F 69.5 °F 29.98 in NNE 13.8 mph 5 mph 73% 0 in 700.00 W/m2
14:19 79.1 °F 70.5 °F 29.98 in NNE 10.4 mph 4.3 mph 75% 0 in 722.00 W/m2
14:24 79.5 °F 69.3 °F 29.98 in ENE 8.1 mph 5.2 mph 71% 0 in 650.00 W/m2
14:29 79.6 °F 69.4 °F 29.98 in North 11.5 mph 7.8 mph 71% 0 in 724.00 W/m2
14:34 79.8 °F 70 °F 29.98 in NNE 11.5 mph 7.2 mph 72% 0 in 979.00 W/m2
14:39 79.8 °F 69.1 °F 29.97 in NE 12.7 mph 8.1 mph 70% 0 in 951.00 W/m2
14:44 79.9 °F 70.1 °F 29.97 in NE 11.5 mph 7 mph 72% 0 in 877.00 W/m2
14:49 80.5 °F 70.6 °F 29.98 in NNE 9.2 mph 4.9 mph 72% 0 in 872.00 W/m2
14:54 80.6 °F 70.3 °F 29.98 in NNE 9.2 mph 4.8 mph 71% 0 in 606.00 W/m2
14:59 80.3 °F 68.8 °F 29.97 in ENE 9.2 mph 5.2 mph 68% 0 in 687.00 W/m2
15:04 80.5 °F 69.4 °F 29.98 in North 9 mph 6.4 mph 69% 0 in 717.00 W/m2
15:09 80.4 °F 69.3 °F 29.98 in NNE 11.5 mph 6.1 mph 69% 0 in 954.00 W/m2
15:14 80.7 °F 69.6 °F 29.98 in East 11.5 mph 4.5 mph 69% 0 in 1081.00 W/m2
15:19 80.9 °F 68.5 °F 29.98 in NE 12.7 mph 4.7 mph 66% 0 in 770.00 W/m2
15:24 80.5 °F 68.5 °F 29.98 in NNE 10.4 mph 7.8 mph 67% 0 in 541.00 W/m2
15:29 80.1 °F 68.6 °F 29.98 in NE 8.1 mph 5.8 mph 68% 0 in 403.00 W/m2
15:34 79.8 °F 67.9 °F 29.98 in NE 11.5 mph 6.1 mph 67% 0 in 469.00 W/m2
15:39 79.6 °F 68.5 °F 29.98 in ENE 9.2 mph 4.3 mph 69% 0 in 466.00 W/m2
15:44 79.3 °F 67.4 °F 29.98 in ENE 9.2 mph 4 mph 67% 0 in 561.00 W/m2
15:49 79.4 °F 69.6 °F 29.98 in ENE 5.8 mph 3.8 mph 72% 0 in 775.00 W/m2
15:54 79.8 °F 68.7 °F 29.98 in NNE 9.2 mph 6.7 mph 69% 0 in 707.00 W/m2
15:59 79.9 °F 69.2 °F 29.97 in NE 9.2 mph 4.8 mph 70% 0 in 684.00 W/m2
16:04 79.9 °F 68 °F 29.97 in North 11 mph 5.5 mph 67% 0 in 664.00 W/m2
16:09 79.8 °F 68.3 °F 29.97 in North 10.4 mph 6.8 mph 68% 0 in 645.00 W/m2
16:14 79.6 °F 66.8 °F 29.97 in NE 10.4 mph 7.9 mph 65% 0 in 628.00 W/m2
16:19 79.4 °F 67.5 °F 29.97 in North 8.1 mph 8.3 mph 67% 0 in 617.00 W/m2
16:24 79.4 °F 67 °F 29.97 in NE 12.7 mph 4.8 mph 66% 0 in 603.00 W/m2
16:29 79.8 °F 67.9 °F 29.97 in North 12 mph 6.6 mph 67% 0 in 592.00 W/m2
16:34 79.7 °F 66.4 °F 29.97 in NE 11.5 mph 7 mph 64% 0 in 580.00 W/m2
16:39 79.5 °F 66.3 °F 29.97 in NNE 11.5 mph 6.4 mph 64% 0 in 570.00 W/m2
16:44 79.4 °F 66.6 °F 29.97 in NE 10.4 mph 6.1 mph 65% 0 in 554.00 W/m2
16:49 79.5 °F 67.1 °F 29.96 in NE 11.5 mph 5.6 mph 66% 0 in 543.00 W/m2
16:54 79 °F 65.8 °F 29.96 in NNE 11.5 mph 8.7 mph 64% 0 in 527.00 W/m2
16:59 78.2 °F 65.5 °F 29.96 in North 12.7 mph 9.8 mph 65% 0 in 515.00 W/m2
17:04 77.8 °F 64.6 °F 29.96 in NNE 12.7 mph 7.1 mph 64% 0 in 497.00 W/m2
17:09 77.7 °F 64.5 °F 29.96 in North 15 mph 9.4 mph 64% 0 in 483.00 W/m2
17:14 77.6 °F 64.9 °F 29.96 in North 10.4 mph 7.8 mph 65% 0 in 471.00 W/m2
17:19 77.6 °F 63.5 °F 29.96 in NE 11.5 mph 7.3 mph 62% 0 in 457.00 W/m2
17:24 77.7 °F 64.1 °F 29.96 in NNE 9.2 mph 8.7 mph 63% 0 in 445.00 W/m2
17:29 77.5 °F 63.9 °F 29.96 in NNE 11.5 mph 7.7 mph 63% 0 in 431.00 W/m2
17:34 77.4 °F 62.9 °F 29.96 in NE 11.5 mph 7.5 mph 61% 0 in 413.00 W/m2
17:39 77.2 °F 63.6 °F 29.97 in NNE 10 mph 8.4 mph 63% 0 in 397.00 W/m2
17:44 76.7 °F 62.2 °F 29.97 in North 11.5 mph 9 mph 61% 0 in 383.00 W/m2
17:49 76.4 °F 62.4 °F 29.97 in North 12 mph 9.4 mph 62% 0 in 369.00 W/m2
17:54 76.2 °F 62.7 °F 29.97 in NNE 11.5 mph 5.9 mph 63% 0 in 353.00 W/m2
17:59 76.1 °F 62.1 °F 29.97 in NNE 11.5 mph 6.5 mph 62% 0 in 341.00 W/m2
18:04 76.2 °F 61.3 °F 29.97 in NNW 12.7 mph 6.7 mph 60% 0 in 325.00 W/m2
18:09 76.3 °F 61.4 °F 29.97 in NE 11.5 mph 6.7 mph 60% 0 in 297.00 W/m2
18:14 76.1 °F 61.2 °F 29.97 in NNE 9.2 mph 7.2 mph 60% 0 in 295.00 W/m2
18:19 76 °F 61.1 °F 29.97 in NE 15 mph 5 mph 60% 0 in 281.00 W/m2
18:24 75.7 °F 59.9 °F 29.97 in NNE 16.1 mph 9.4 mph 58% 0 in 271.00 W/m2
18:29 75.4 °F 61 °F 29.97 in NNE 12.7 mph 6.9 mph 61% 0 in 253.00 W/m2
18:34 75.2 °F 60.8 °F 29.97 in NNE 11.5 mph 7.5 mph 61% 0 in 241.00 W/m2
18:39 75 °F 61.1 °F 29.97 in North 11.5 mph 6.7 mph 62% 0 in 225.00 W/m2
18:44 74.9 °F 61.5 °F 29.97 in North 14 mph 7.2 mph 63% 0 in 186.00 W/m2
18:49 74.6 °F 61.2 °F 29.97 in NNE 11.5 mph 8.5 mph 63% 0 in 190.00 W/m2
18:54 74.4 °F 61.4 °F 29.97 in NNE 10.4 mph 6.8 mph 64% 0 in 178.00 W/m2
18:59 74.1 °F 59.8 °F 29.97 in ENE 11.5 mph 8.4 mph 61% 0 in 160.00 W/m2
19:04 73.9 °F 60.5 °F 29.97 in NNW 11.5 mph 6.8 mph 63% 0 in 142.00 W/m2
19:09 73.6 °F 59.8 °F 29.97 in North 11.5 mph 7 mph 62% 0 in 127.00 W/m2
19:14 73.3 °F 60.4 °F 29.97 in NNE 9.2 mph 5.1 mph 64% 0 in 111.00 W/m2
19:19 73.1 °F 60.6 °F 29.97 in NNE 9.2 mph 6.5 mph 65% 0 in 95.00 W/m2
19:24 72.9 °F 60 °F 29.98 in North 10.4 mph 5 mph 64% 0 in 84.00 W/m2
19:29 72.6 °F 60.2 °F 29.98 in NE 8.1 mph 4.4 mph 65% 0 in 40.00 W/m2
19:34 72.2 °F 60.2 °F 29.98 in NNE 8.1 mph 7.2 mph 66% 0 in 33.00 W/m2
19:39 72 °F 60 °F 29.98 in NNE 6.9 mph 2.6 mph 66% 0 in 28.00 W/m2
19:44 71.7 °F 59.7 °F 29.98 in NNE 9.2 mph 5.4 mph 66% 0 in 26.00 W/m2
19:49 71.6 °F 59.6 °F 29.98 in North 3.5 mph 1.2 mph 66% 0 in 23.00 W/m2
19:54 71.2 °F 59.7 °F 29.98 in NNE 3.5 mph 2.1 mph 67% 0 in 21.00 W/m2
19:59 70.8 °F 59.3 °F 29.98 in North 3.5 mph 2.8 mph 67% 0 in 19.00 W/m2
20:04 70.5 °F 59.4 °F 29.98 in NNE 5 mph 3 mph 68% 0 in 16.00 W/m2
20:09 70.3 °F 59.2 °F 29.98 in NNE 5 mph 3.7 mph 68% 0 in 11.00 W/m2
20:14 70.1 °F 59.5 °F 29.98 in NNE 4.6 mph 2.8 mph 69% 0 in 9.00 W/m2
20:19 69.8 °F 59.2 °F 29.98 in NE 3.5 mph 2.3 mph 69% 0 in 7.00 W/m2
20:24 69.5 °F 59.7 °F 29.98 in NNE 3.5 mph 2.4 mph 71% 0 in 0.00 W/m2
20:29 69.1 °F 59.3 °F 29.98 in NNE 4.6 mph 2.7 mph 71% 0 in 0.00 W/m2
20:34 68.9 °F 59.5 °F 29.98 in NNE 5.8 mph 2 mph 72% 0 in 0.00 W/m2
20:39 68.7 °F 59.3 °F 29.98 in NNE 3.5 mph 2.1 mph 72% 0 in 0.00 W/m2
20:44 68.4 °F 59.4 °F 29.99 in NNE 3.5 mph 2.3 mph 73% 0 in 0.00 W/m2
20:49 68.2 °F 59.6 °F 29.99 in NNE 3.5 mph 1.7 mph 74% 0 in 0.00 W/m2
20:54 67.9 °F 59.7 °F 29.99 in NNE 3.5 mph 2.4 mph 75% 0 in 0.00 W/m2
20:59 67.7 °F 59.5 °F 29.99 in North 2.3 mph 1.2 mph 75% 0 in 0.00 W/m2
21:04 67.4 °F 59.9 °F 29.99 in Calm     77% 0 in 0.00 W/m2
21:09 67.1 °F 60.4 °F 29.99 in North 2.3 mph   79% 0 in 0.00 W/m2
21:14 66.6 °F 60.2 °F 29.99 in NNE 3.5 mph 1.3 mph 80% 0 in 0.00 W/m2
21:19 66.2 °F 59.8 °F 29.99 in NNE 4.6 mph 0.8 mph 80% 0 in 0.00 W/m2
21:24 65.9 °F 59.6 °F 29.99 in NE 3.5 mph 0.8 mph 80% 0 in 0.00 W/m2
21:29 65.8 °F 59.5 °F 29.99 in NNE 3.5 mph 0.6 mph 80% 0 in 0.00 W/m2
21:34 65.7 °F 59.4 °F 29.99 in NNE 3.5 mph 1.7 mph 80% 0 in 0.00 W/m2
21:39 65.5 °F 59.2 °F 30.00 in North 5 mph 2.2 mph 80% 0 in 0.00 W/m2
21:44 65.6 °F 58.9 °F 29.99 in NNE 3.5 mph 2.5 mph 79% 0 in 0.00 W/m2
21:49 65.7 °F 59 °F 30.00 in NNE 4.6 mph 2.8 mph 79% 0 in 0.00 W/m2
21:54 65.8 °F 59.1 °F 30.00 in NE 3.5 mph 0.9 mph 79% 0 in 0.00 W/m2
21:59 65.7 °F 59 °F 30.00 in NNE 4.6 mph 3.5 mph 79% 0 in 0.00 W/m2
22:04 65.7 °F 58.7 °F 29.99 in NNE 3.5 mph 2.4 mph 78% 0 in 0.00 W/m2
22:09 65.6 °F 58.9 °F 30.00 in NNE 3.5 mph 1.7 mph 79% 0 in 0.00 W/m2
22:14 65.5 °F 58.8 °F 29.99 in NNE 4 mph 1.8 mph 79% 0 in 0.00 W/m2
22:19 65.3 °F 59 °F 30.00 in NNE 4 mph 2.4 mph 80% 0 in 0.00 W/m2
22:24 65.2 °F 58.9 °F 30.00 in NNE 1.2 mph 2.1 mph 80% 0 in 0.00 W/m2
22:29 65 °F 58.7 °F 30.00 in NE 4 mph 2.6 mph 80% 0 in 0.00 W/m2
22:34 65 °F 59 °F 29.99 in NNE 5.8 mph 4.3 mph 81% 0 in 0.00 W/m2
22:39 65 °F 59 °F 29.99 in NNE 4.6 mph 1.9 mph 81% 0 in 0.00 W/m2
22:44 64.9 °F 58.9 °F 29.99 in NNE 5 mph 2.7 mph 81% 0 in 0.00 W/m2
22:49 64.9 °F 59.3 °F 29.99 in North 4.6 mph 3 mph 82% 0 in 0.00 W/m2
22:54 64.8 °F 59.2 °F 29.99 in NNE 3.5 mph 3.1 mph 82% 0 in 0.00 W/m2
22:59 64.7 °F 59.1 °F 29.99 in North 3.5 mph 2.3 mph 82% 0 in 0.00 W/m2
23:04 64.6 °F 59 °F 30.00 in North 4.6 mph 3.3 mph 82% 0 in 0.00 W/m2
23:09 64.6 °F 59.3 °F 30.00 in North 3.5 mph 3.2 mph 83% 0 in 0.00 W/m2
23:14 64.7 °F 59.1 °F 30.00 in NE 3.5 mph 3 mph 82% 0 in 0.00 W/m2
23:19 64.7 °F 59.1 °F 30.00 in NNE 5 mph 1.5 mph 82% 0 in 0.00 W/m2
23:24 64.7 °F 59.1 °F 30.00 in NNE 4 mph 2.8 mph 82% 0 in 0.00 W/m2
23:29 64.8 °F 59.2 °F 30.00 in NE 6 mph 3.4 mph 82% 0 in 0.00 W/m2
23:34 64.9 °F 59.6 °F 30.00 in NE 3.5 mph 1.6 mph 83% 0 in 0.00 W/m2
23:39 64.9 °F 59.3 °F 30.00 in NE 3.5 mph 1.7 mph 82% 0 in 0.00 W/m2
23:44 64.9 °F 59.3 °F 30.00 in NNE 4 mph 2.3 mph 82% 0 in 0.00 W/m2
23:49 65 °F 59.4 °F 30.00 in NNE 2.3 mph 1.9 mph 82% 0 in 0.00 W/m2
23:54 65 °F 59.4 °F 30.00 in North 3.5 mph 2.3 mph 82% 0 in 0.00 W/m2
23:59 65 °F 59.4 °F 30.00 in NNE 3.5 mph 2.8 mph 82% 0 in 0.00 W/m2
Bourbonnais, Illinois, USA
Compliments of Weather Underground - 4 mb